Time;durP1;ratioP1;P1;durP2;ratioP2;P2;SDS_P1;SDS_P2;PMS_P1;PMS_P2;Temp;Humidity;BMP_temperature;BMP_pressure;BME280_temperature;BME280_humidity;BME280_pressure;Samples;Min_cycle;Max_cycle;Signal;HPM_P1;HPM_P2
2023/05/06 00:01:16;;;;;;;5.60;4.00;;;15.90;78.40;;;;;;5070490;28;20500;-66
2023/05/06 00:03:50;;;;;;;5.87;4.03;;;15.80;78.50;;;;;;5069659;28;20794;-66
2023/05/06 00:06:24;;;;;;;5.40;3.40;;;15.80;78.50;;;;;;5069633;28;20467;-66
2023/05/06 00:09:00;;;;;;;5.03;3.17;;;15.80;78.60;;;;;;5071306;28;20485;-66
2023/05/06 00:11:34;;;;;;;7.00;3.80;;;15.80;78.60;;;;;;5069090;28;20541;-66
2023/05/06 00:14:07;;;;;;;7.50;3.63;;;15.80;78.50;;;;;;5068883;28;20904;-69
2023/05/06 00:16:51;;;;;;;5.17;3.40;;;15.80;78.50;;;;;;5071119;28;20580;-66
2023/05/06 00:19:23;;;;;;;7.07;3.07;;;15.80;78.60;;;;;;5070285;28;20464;-66
2023/05/06 00:22:02;;;;;;;6.17;3.27;;;15.70;78.50;;;;;;5067295;28;20467;-66
2023/05/06 00:24:43;;;;;;;5.63;3.43;;;15.70;78.50;;;;;;5070456;28;20498;-66
2023/05/06 00:27:16;;;;;;;5.90;3.50;;;15.70;78.60;;;;;;5068530;28;20487;-66
2023/05/06 00:29:45;;;;;;;5.53;3.80;;;15.70;78.70;;;;;;5069476;28;20834;-66
2023/05/06 00:32:19;;;;;;;7.40;4.17;;;15.70;78.80;;;;;;5064921;28;21306;-66
2023/05/06 00:34:59;;;;;;;6.83;3.80;;;15.70;78.70;;;;;;5068277;28;20483;-66
2023/05/06 00:37:49;;;;;;;6.47;4.60;;;15.70;78.80;;;;;;5070937;28;20450;-66
2023/05/06 00:40:23;;;;;;;8.40;5.00;;;15.70;78.80;;;;;;5072380;28;20466;-66
2023/05/06 00:43:03;;;;;;;8.10;5.13;;;15.70;78.80;;;;;;5068943;28;20474;-66
2023/05/06 00:45:34;;;;;;;7.60;4.67;;;15.70;78.70;;;;;;5069716;28;20447;-66
2023/05/06 00:48:12;;;;;;;8.67;5.47;;;15.60;78.70;;;;;;5070329;28;20583;-66
2023/05/06 00:50:48;;;;;;;9.37;5.47;;;15.60;78.70;;;;;;5069805;28;20449;-66
2023/05/06 00:53:26;;;;;;;9.33;5.80;;;15.50;78.80;;;;;;5068071;28;20461;-66
2023/05/06 00:56:01;;;;;;;7.47;5.03;;;15.50;78.90;;;;;;5070239;28;20453;-66
2023/05/06 00:58:41;;;;;;;9.50;6.10;;;15.40;79.00;;;;;;5083142;28;20492;-66
2023/05/06 01:01:14;;;;;;;8.33;4.67;;;15.40;79.10;;;;;;5067742;28;20587;-66
2023/05/06 01:03:50;;;;;;;8.40;5.33;;;15.40;79.20;;;;;;5068201;28;20463;-66
2023/05/06 01:06:33;;;;;;;7.90;4.60;;;15.40;79.10;;;;;;5074133;28;20531;-66
2023/05/06 01:09:19;;;;;;;7.57;4.53;;;15.40;79.00;;;;;;5071432;28;20865;-66
2023/05/06 01:11:56;;;;;;;8.10;4.43;;;15.40;78.90;;;;;;5069000;28;20468;-66
2023/05/06 01:14:41;;;;;;;10.40;5.33;;;15.40;78.80;;;;;;5067640;28;20472;-66
2023/05/06 01:17:21;;;;;;;8.47;5.40;;;15.40;78.80;;;;;;5069241;28;20475;-66
2023/05/06 01:19:56;;;;;;;9.13;5.80;;;15.30;78.90;;;;;;5069109;28;20472;-66
2023/05/06 01:22:29;;;;;;;15.37;6.83;;;15.30;78.90;;;;;;5067733;28;20532;-66
2023/05/06 01:25:22;;;;;;;12.37;6.30;;;15.30;78.90;;;;;;5073490;28;20537;-66
2023/05/06 01:28:08;;;;;;;11.80;6.00;;;15.30;79.00;;;;;;5070879;28;20476;-66
2023/05/06 01:30:57;;;;;;;11.10;6.63;;;15.20;79.00;;;;;;5061606;28;20769;-66
2023/05/06 01:33:45;;;;;;;16.80;6.77;;;15.20;79.20;;;;;;5067042;28;20899;-66
2023/05/06 01:36:25;;;;;;;9.70;6.00;;;15.20;79.30;;;;;;5068222;28;20472;-66
2023/05/06 01:39:09;;;;;;;11.07;6.33;;;15.30;79.50;;;;;;5070613;28;20456;-66
2023/05/06 01:41:51;;;;;;;10.80;6.50;;;15.30;79.40;;;;;;5066436;28;20843;-66
2023/05/06 01:44:29;;;;;;;10.47;6.80;;;15.30;79.40;;;;;;5066693;28;20924;-66
2023/05/06 01:47:09;;;;;;;9.77;5.50;;;15.30;79.40;;;;;;5067698;28;20478;-66
2023/05/06 01:49:50;;;;;;;8.43;6.07;;;15.30;79.40;;;;;;5068516;28;20493;-66
2023/05/06 01:52:23;;;;;;;8.53;6.10;;;15.30;79.30;;;;;;5066220;28;20525;-66
2023/05/06 01:55:08;;;;;;;7.50;5.73;;;15.30;79.30;;;;;;5067308;28;20457;-66
2023/05/06 01:57:43;;;;;;;10.93;6.60;;;15.30;79.40;;;;;;5063266;28;20491;-66
2023/05/06 02:00:16;;;;;;;10.90;6.47;;;15.30;79.40;;;;;;5068719;28;20511;-66
2023/05/06 02:02:44;;;;;;;8.50;6.53;;;15.30;79.30;;;;;;5068804;28;20488;-66
2023/05/06 02:05:18;;;;;;;10.90;7.37;;;15.30;79.30;;;;;;5068594;28;20878;-66
2023/05/06 02:08:06;;;;;;;13.90;7.97;;;15.30;79.20;;;;;;5067358;28;20477;-65
2023/05/06 02:10:40;;;;;;;10.83;8.33;;;15.30;79.30;;;;;;5067230;28;20517;-66
2023/05/06 02:13:18;;;;;;;10.80;7.43;;;15.30;79.50;;;;;;5065635;28;20456;-66
2023/05/06 02:15:54;;;;;;;12.00;8.20;;;15.30;79.50;;;;;;5068271;28;20458;-66
2023/05/06 02:18:27;;;;;;;10.87;7.20;;;15.30;79.50;;;;;;5066394;28;20846;-66
2023/05/06 02:21:02;;;;;;;10.30;7.03;;;15.30;79.30;;;;;;5069209;28;20937;-66
2023/05/06 02:23:40;;;;;;;14.70;7.43;;;15.20;79.30;;;;;;5067762;28;20488;-66
2023/05/06 02:26:11;;;;;;;10.30;7.17;;;15.20;79.30;;;;;;5066854;28;20779;-66
2023/05/06 02:29:04;;;;;;;10.63;6.93;;;15.10;79.40;;;;;;5068325;28;20490;-66
2023/05/06 02:31:39;;;;;;;8.70;6.40;;;15.10;79.50;;;;;;5065465;28;20488;-66
2023/05/06 02:34:13;;;;;;;14.93;7.53;;;15.10;79.40;;;;;;5069756;28;20451;-66
2023/05/06 02:36:47;;;;;;;9.80;7.10;;;15.10;79.30;;;;;;5061730;28;20524;-66
2023/05/06 02:39:16;;;;;;;13.53;6.33;;;15.10;79.40;;;;;;5066433;28;20445;-66
2023/05/06 02:41:56;;;;;;;9.30;6.30;;;15.10;79.50;;;;;;5064921;28;20457;-67
2023/05/06 02:44:32;;;;;;;9.57;6.03;;;15.10;79.60;;;;;;5064771;28;20464;-66
2023/05/06 02:47:04;;;;;;;10.37;5.93;;;15.10;79.50;;;;;;5067849;28;20463;-66
2023/05/06 02:49:49;;;;;;;15.20;6.60;;;15.10;79.40;;;;;;5066291;28;20502;-66
2023/05/06 02:52:25;;;;;;;8.00;5.50;;;15.10;79.20;;;;;;5066436;28;20494;-66
2023/05/06 02:54:57;;;;;;;11.87;7.30;;;15.10;79.10;;;;;;5067475;28;20458;-66
2023/05/06 02:57:34;;;;;;;12.33;5.50;;;15.00;79.00;;;;;;5065123;28;20933;-66
2023/05/06 03:00:10;;;;;;;8.87;6.23;;;15.00;79.00;;;;;;5065964;28;20465;-66
2023/05/06 03:02:44;;;;;;;11.73;6.70;;;15.00;78.90;;;;;;5065836;28;21081;-66
2023/05/06 03:05:14;;;;;;;8.80;6.73;;;15.00;78.90;;;;;;5065637;28;20564;-66
2023/05/06 03:07:45;;;;;;;9.30;7.07;;;14.90;78.70;;;;;;5066160;28;20477;-66
2023/05/06 03:10:19;;;;;;;10.87;8.00;;;14.90;78.70;;;;;;5062607;28;20480;-66
2023/05/06 03:12:55;;;;;;;10.47;7.30;;;14.80;78.70;;;;;;5064198;28;20464;-66
2023/05/06 03:15:31;;;;;;;11.07;8.30;;;14.80;78.70;;;;;;5066501;28;20462;-66
2023/05/06 03:18:06;;;;;;;11.27;7.97;;;14.70;78.80;;;;;;5064179;28;20472;-66
2023/05/06 03:20:47;;;;;;;12.03;8.13;;;14.60;79.00;;;;;;5064503;28;20457;-66
2023/05/06 03:23:18;;;;;;;10.67;7.13;;;14.70;79.20;;;;;;5063830;28;20458;-66
2023/05/06 03:25:56;;;;;;;10.43;7.03;;;14.70;79.10;;;;;;5067423;28;20476;-66
2023/05/06 03:31:25;;;;;;;9.57;7.27;;;14.60;78.80;;;;;;5065043;28;20989;-66
2023/05/06 03:34:07;;;;;;;12.17;7.13;;;14.50;78.80;;;;;;5065268;28;20460;-66
2023/05/06 03:36:43;;;;;;;10.63;6.47;;;14.50;78.80;;;;;;5063864;28;20475;-66
2023/05/06 03:39:25;;;;;;;11.87;7.53;;;14.50;79.00;;;;;;5064520;28;20464;-66
2023/05/06 03:42:01;;;;;;;12.80;7.53;;;14.50;78.80;;;;;;5064203;28;20498;-66
2023/05/06 03:44:42;;;;;;;10.40;7.33;;;14.40;78.70;;;;;;5060123;28;20580;-66
2023/05/06 03:47:20;;;;;;;14.50;6.30;;;14.40;78.70;;;;;;5068723;28;20455;-66
2023/05/06 03:49:52;;;;;;;10.80;7.70;;;14.40;78.70;;;;;;5064422;28;20472;-66
2023/05/06 03:52:27;;;;;;;9.53;7.47;;;14.30;78.80;;;;;;5063403;28;20546;-66
2023/05/06 03:55:00;;;;;;;9.67;7.07;;;14.40;78.80;;;;;;5069306;28;20449;-66
2023/05/06 03:57:34;;;;;;;8.17;5.93;;;14.40;78.80;;;;;;5068453;28;20475;-66
2023/05/06 04:00:14;;;;;;;9.80;6.70;;;14.40;78.80;;;;;;5062167;28;20476;-66
2023/05/06 04:02:58;;;;;;;10.20;6.17;;;14.40;78.80;;;;;;5064487;28;21280;-66
2023/05/06 04:05:39;;;;;;;8.63;5.60;;;14.40;78.60;;;;;;5069238;28;20496;-66
2023/05/06 04:08:22;;;;;;;8.90;6.20;;;14.40;78.40;;;;;;5068092;28;20569;-66
2023/05/06 04:10:51;;;;;;;11.43;6.80;;;14.30;78.30;;;;;;5068441;28;20486;-66
2023/05/06 04:13:32;;;;;;;10.17;6.20;;;14.30;78.10;;;;;;5067581;28;20454;-66
2023/05/06 04:16:16;;;;;;;13.77;6.20;;;14.30;78.10;;;;;;5072669;28;20539;-66
2023/05/06 04:19:02;;;;;;;8.70;6.40;;;14.30;78.10;;;;;;5067803;28;20468;-66
2023/05/06 04:21:37;;;;;;;10.27;6.40;;;14.20;78.20;;;;;;5072819;28;20469;-66
2023/05/06 04:24:15;;;;;;;8.00;5.70;;;14.30;78.20;;;;;;5070958;28;20565;-66
2023/05/06 04:26:46;;;;;;;9.30;6.10;;;14.30;78.10;;;;;;5070653;28;20968;-66
2023/05/06 04:29:16;;;;;;;12.27;7.43;;;14.20;78.10;;;;;;5070127;28;20471;-66
2023/05/06 04:32:03;;;;;;;13.90;7.83;;;14.20;77.80;;;;;;5069577;28;20486;-66
2023/05/06 04:34:52;;;;;;;13.37;8.40;;;14.20;77.90;;;;;;5072612;28;20468;-66
2023/05/06 04:37:28;;;;;;;14.97;7.07;;;14.10;77.90;;;;;;5070718;28;20456;-66
2023/05/06 04:40:28;;;;;;;8.37;6.00;;;14.10;77.80;;;;;;5069665;28;20451;-66
2023/05/06 04:43:03;;;;;;;9.53;7.10;;;14.00;78.00;;;;;;5071582;28;20802;-66
2023/05/06 04:45:36;;;;;;;9.00;6.70;;;14.00;78.10;;;;;;5061993;28;20464;-66
2023/05/06 04:48:08;;;;;;;9.10;6.67;;;14.00;78.30;;;;;;5070139;28;20535;-66
2023/05/06 04:50:44;;;;;;;7.33;5.80;;;14.10;78.50;;;;;;5069052;28;20495;-66
2023/05/06 04:53:25;;;;;;;9.90;5.87;;;14.20;78.60;;;;;;5052214;28;20895;-66
2023/05/06 04:56:01;;;;;;;10.90;6.60;;;14.30;78.70;;;;;;5067192;28;20789;-66
2023/05/06 04:58:37;;;;;;;8.00;5.70;;;14.40;78.50;;;;;;5082351;28;20522;-66
2023/05/06 05:01:10;;;;;;;10.17;6.73;;;14.50;78.40;;;;;;5069320;28;21072;-66
2023/05/06 05:03:45;;;;;;;10.30;7.40;;;14.70;78.60;;;;;;5069751;28;20579;-66
2023/05/06 05:06:23;;;;;;;8.30;5.57;;;14.80;79.00;;;;;;5083360;28;20465;-66
2023/05/06 05:08:58;;;;;;;7.90;5.93;;;15.10;79.50;;;;;;5067339;28;20561;-66
2023/05/06 05:11:40;;;;;;;6.37;4.60;;;15.60;79.70;;;;;;5080387;28;20457;-66
2023/05/06 05:14:13;;;;;;;8.00;4.33;;;16.20;78.70;;;;;;5049689;28;20484;-66
2023/05/06 05:16:47;;;;;;;9.07;4.63;;;16.90;77.50;;;;;;5068797;28;20520;-66
2023/05/06 05:19:21;;;;;;;6.43;4.77;;;17.70;75.70;;;;;;5059914;28;20454;-67
2023/05/06 05:21:59;;;;;;;6.00;4.20;;;18.30;74.70;;;;;;5069594;28;20457;-66
2023/05/06 05:24:41;;;;;;;6.60;4.17;;;18.90;73.90;;;;;;5068328;28;20546;-66
2023/05/06 05:27:22;;;;;;;10.90;4.50;;;19.80;73.10;;;;;;5068323;28;20948;-66
2023/05/06 05:29:52;;;;;;;7.20;4.60;;;20.70;71.80;;;;;;5069479;28;20483;-66
2023/05/06 05:32:27;;;;;;;7.87;4.60;;;21.40;70.90;;;;;;5065021;28;20507;-66
2023/05/06 05:34:59;;;;;;;6.37;4.30;;;22.20;69.90;;;;;;5067127;28;20533;-66
2023/05/06 05:37:39;;;;;;;6.37;3.90;;;23.00;69.10;;;;;;5059585;28;20512;-66
2023/05/06 05:40:12;;;;;;;9.30;4.13;;;23.60;67.80;;;;;;5070363;28;20525;-66
2023/05/06 05:42:52;;;;;;;7.30;4.40;;;24.20;67.20;;;;;;5068900;28;20466;-66
2023/05/06 05:45:33;;;;;;;7.83;4.00;;;24.80;66.20;;;;;;5067018;28;20466;-67
2023/05/06 05:48:19;;;;;;;6.07;4.40;;;25.20;65.30;;;;;;5067869;28;20556;-66
2023/05/06 05:50:51;;;;;;;6.60;4.07;;;25.80;64.40;;;;;;5069299;28;20476;-67
2023/05/06 05:53:31;;;;;;;10.70;4.83;;;26.30;63.20;;;;;;5065761;28;20457;-67
2023/05/06 05:56:08;;;;;;;7.33;4.10;;;26.70;62.00;;;;;;5066782;28;20458;-67
2023/05/06 05:58:49;;;;;;;6.80;3.90;;;27.10;61.30;;;;;;5065615;28;20464;-67
2023/05/06 06:01:24;;;;;;;6.40;3.97;;;27.60;60.50;;;;;;5064879;28;21090;-67
2023/05/06 06:03:58;;;;;;;7.73;4.37;;;27.90;58.90;;;;;;5065068;28;20534;-66
2023/05/06 06:06:33;;;;;;;9.70;4.83;;;27.10;57.60;;;;;;5064519;28;20724;-67
2023/05/06 06:09:15;;;;;;;8.53;4.60;;;25.60;58.20;;;;;;5065961;28;20563;-67
2023/05/06 06:11:51;;;;;;;11.40;5.17;;;24.00;59.30;;;;;;5064547;28;20476;-66
2023/05/06 06:14:24;;;;;;;10.27;4.83;;;22.60;60.70;;;;;;5069464;28;20454;-66
2023/05/06 06:17:06;;;;;;;12.03;5.57;;;21.50;62.20;;;;;;5069560;28;20556;-66
2023/05/06 06:19:37;;;;;;;9.17;4.97;;;20.60;63.40;;;;;;5065456;28;20458;-66
2023/05/06 06:22:11;;;;;;;8.37;5.07;;;19.90;64.40;;;;;;5065153;28;20465;-66
2023/05/06 06:24:53;;;;;;;8.23;5.00;;;19.40;65.40;;;;;;5060014;28;20464;-66
2023/05/06 06:27:35;;;;;;;7.37;5.07;;;19.00;66.30;;;;;;5066817;28;20558;-66
2023/05/06 06:30:08;;;;;;;7.53;4.83;;;18.70;67.00;;;;;;5063738;28;20481;-66
2023/05/06 06:32:57;;;;;;;7.20;4.63;;;18.40;67.50;;;;;;5063871;28;20571;-66
2023/05/06 06:35:39;;;;;;;9.30;5.67;;;18.20;68.30;;;;;;5068835;28;20473;-66
2023/05/06 06:38:08;;;;;;;8.00;5.10;;;18.00;68.80;;;;;;5068730;28;20455;-66
2023/05/06 06:40:52;;;;;;;12.53;6.10;;;17.90;69.30;;;;;;5068290;28;20457;-66
2023/05/06 06:43:31;;;;;;;10.43;5.40;;;17.70;70.00;;;;;;5068763;28;20930;-66
2023/05/06 06:46:11;;;;;;;9.17;6.47;;;17.60;70.40;;;;;;5067035;28;20559;-66
2023/05/06 06:48:43;;;;;;;11.07;5.40;;;17.50;70.70;;;;;;5066716;28;20473;-66
2023/05/06 06:51:19;;;;;;;8.20;4.90;;;17.50;71.10;;;;;;5066578;28;20471;-66
2023/05/06 06:53:53;;;;;;;10.30;5.70;;;17.50;71.30;;;;;;5065077;28;20560;-66
2023/05/06 06:56:27;;;;;;;8.37;5.30;;;17.40;71.60;;;;;;5064697;28;20453;-66
2023/05/06 06:58:59;;;;;;;7.97;4.90;;;17.40;72.00;;;;;;5065655;28;20703;-66
2023/05/06 07:01:38;;;;;;;10.50;5.50;;;17.40;72.10;;;;;;5064198;28;20470;-66
2023/05/06 07:04:14;;;;;;;9.63;5.77;;;17.40;72.60;;;;;;5066191;28;20534;-66
2023/05/06 07:06:45;;;;;;;8.00;5.60;;;17.40;72.90;;;;;;5066169;28;20469;-66
2023/05/06 07:09:15;;;;;;;12.43;5.10;;;17.40;73.10;;;;;;5067286;28;20470;-66
2023/05/06 07:11:52;;;;;;;8.83;5.80;;;17.30;73.30;;;;;;5068997;28;20470;-66
2023/05/06 07:14:33;;;;;;;6.83;4.40;;;17.40;73.60;;;;;;5068071;28;20491;-66
2023/05/06 07:17:04;;;;;;;6.70;4.50;;;17.40;73.60;;;;;;5082608;28;20527;-66
2023/05/06 07:19:38;;;;;;;8.13;5.13;;;17.40;73.80;;;;;;5077233;28;20831;-66
2023/05/06 07:22:12;;;;;;;9.33;4.97;;;17.40;73.90;;;;;;5066089;28;20763;-66
2023/05/06 07:24:42;;;;;;;9.47;6.43;;;17.50;74.00;;;;;;5069578;28;20992;-66
2023/05/06 07:27:19;;;;;;;9.67;5.50;;;17.50;74.20;;;;;;5066877;28;20561;-65
2023/05/06 07:29:54;;;;;;;8.53;4.70;;;17.50;74.50;;;;;;5071204;28;20467;-65
2023/05/06 07:32:26;;;;;;;9.33;5.37;;;17.50;74.60;;;;;;5066086;28;20485;-65
2023/05/06 07:35:04;;;;;;;9.33;5.50;;;17.50;74.80;;;;;;5069057;28;21201;-65
2023/05/06 07:40:24;;;;;;;8.93;5.50;;;17.50;74.90;;;;;;5065292;28;20490;-65
2023/05/06 07:42:56;;;;;;;9.03;5.60;;;17.50;75.00;;;;;;5069587;28;21125;-67
2023/05/06 07:45:28;;;;;;;8.17;4.60;;;17.50;75.20;;;;;;5070537;28;20902;-65
2023/05/06 07:48:07;;;;;;;10.80;5.20;;;17.50;75.30;;;;;;5071038;28;20457;-65
2023/05/06 07:50:40;;;;;;;9.33;5.33;;;17.60;75.40;;;;;;5069131;28;20453;-65
2023/05/06 07:53:13;;;;;;;8.23;4.70;;;17.60;75.40;;;;;;5068407;28;20462;-65
2023/05/06 07:55:44;;;;;;;7.80;4.30;;;17.60;75.50;;;;;;5071628;28;20462;-65
2023/05/06 07:58:21;;;;;;;8.43;5.40;;;17.70;75.60;;;;;;5066159;28;20500;-65
2023/05/06 08:01:02;;;;;;;9.50;4.70;;;17.70;75.60;;;;;;5069882;28;20789;-66
2023/05/06 08:03:31;;;;;;;9.40;4.30;;;17.70;75.50;;;;;;5068415;28;20462;-66
2023/05/06 08:06:10;;;;;;;11.90;5.80;;;17.80;75.60;;;;;;5068923;28;20453;-65
2023/05/06 08:08:38;;;;;;;8.07;4.83;;;17.80;75.70;;;;;;5072287;28;20454;-65
2023/05/06 08:11:09;;;;;;;7.40;4.60;;;17.90;75.70;;;;;;5069382;28;20476;-65
2023/05/06 08:13:44;;;;;;;7.83;4.77;;;17.90;75.60;;;;;;5067086;28;20950;-65
2023/05/06 08:16:17;;;;;;;10.70;4.70;;;17.90;75.50;;;;;;5065911;28;20975;-65
2023/05/06 08:18:54;;;;;;;8.37;4.60;;;17.90;75.40;;;;;;5070989;28;20462;-66
2023/05/06 08:21:23;;;;;;;9.50;5.67;;;17.90;75.30;;;;;;5068844;28;20485;-65
2023/05/06 08:24:01;;;;;;;7.97;4.70;;;17.80;75.50;;;;;;5069534;28;20555;-65
2023/05/06 08:26:37;;;;;;;10.63;4.90;;;17.80;75.50;;;;;;5069857;28;20454;-65
2023/05/06 08:29:13;;;;;;;8.70;4.80;;;17.90;75.40;;;;;;5068327;28;20481;-65
2023/05/06 08:31:45;;;;;;;8.17;4.67;;;17.90;75.60;;;;;;5065858;28;20580;-65
2023/05/06 08:34:17;;;;;;;11.60;5.63;;;18.00;75.60;;;;;;5061862;28;21020;-65
2023/05/06 08:36:48;;;;;;;9.07;4.80;;;18.00;75.70;;;;;;5069373;28;20454;-65
2023/05/06 08:39:26;;;;;;;6.60;4.23;;;18.10;75.70;;;;;;5068389;28;20454;-65
2023/05/06 08:42:00;;;;;;;10.40;5.10;;;18.10;75.60;;;;;;5066657;28;21013;-65
2023/05/06 08:44:35;;;;;;;7.93;4.90;;;18.20;75.50;;;;;;5067585;28;20800;-65
2023/05/06 08:47:16;;;;;;;6.63;4.33;;;18.20;75.40;;;;;;5066899;28;20476;-66
2023/05/06 08:49:56;;;;;;;8.63;4.20;;;18.20;75.40;;;;;;5068033;28;20458;-65
2023/05/06 08:52:31;;;;;;;7.33;3.73;;;18.30;75.30;;;;;;5067067;28;20805;-65
2023/05/06 08:55:16;;;;;;;8.83;4.27;;;18.30;75.30;;;;;;5067750;28;20828;-65
2023/05/06 08:57:55;;;;;;;9.20;3.60;;;18.40;75.20;;;;;;5064641;28;20470;-65
2023/05/06 09:00:36;;;;;;;10.80;3.27;;;18.50;74.90;;;;;;5067219;28;20470;-66
2023/05/06 09:03:20;;;;;;;7.90;3.57;;;18.60;74.70;;;;;;5069442;28;20459;-65
2023/05/06 09:05:53;;;;;;;7.50;3.40;;;18.60;74.50;;;;;;5066226;28;20464;-65
2023/05/06 09:08:33;;;;;;;7.00;3.47;;;18.70;74.20;;;;;;5071898;28;20487;-65
2023/05/06 09:11:19;;;;;;;6.83;2.97;;;18.70;74.00;;;;;;5068064;28;20911;-65
2023/05/06 09:14:14;;;;;;;8.87;2.80;;;18.70;73.80;;;;;;5068931;28;20468;-65
2023/05/06 09:16:48;;;;;;;5.97;2.40;;;18.70;73.70;;;;;;5068735;28;20492;-65
2023/05/06 09:19:26;;;;;;;7.17;3.13;;;18.80;73.60;;;;;;5067391;28;20455;-66
2023/05/06 09:22:01;;;;;;;4.80;2.40;;;18.80;73.40;;;;;;5070437;28;20510;-65
2023/05/06 09:24:29;;;;;;;7.80;2.90;;;18.80;73.10;;;;;;5069549;28;20485;-66
2023/05/06 09:27:09;;;;;;;8.23;2.50;;;18.70;73.10;;;;;;5066988;28;20465;-65
2023/05/06 09:30:00;;;;;;;8.73;3.30;;;18.80;73.00;;;;;;5063696;28;20658;-65
2023/05/06 09:32:37;;;;;;;9.90;3.27;;;18.90;72.70;;;;;;5065714;28;20949;-66
2023/05/06 09:35:11;;;;;;;6.77;2.87;;;18.90;72.60;;;;;;5070283;28;20824;-66
2023/05/06 09:37:45;;;;;;;10.07;3.47;;;18.90;72.60;;;;;;5065554;28;20452;-65
2023/05/06 09:40:18;;;;;;;7.80;3.33;;;18.90;72.50;;;;;;5070748;28;20792;-65
2023/05/06 09:42:50;;;;;;;8.80;3.10;;;18.90;72.50;;;;;;5067731;28;20825;-65
2023/05/06 09:48:28;;;;;;;6.03;3.10;;;18.90;72.10;;;;;;5069693;28;20479;-65
2023/05/06 09:51:00;;;;;;;9.10;2.97;;;18.90;71.80;;;;;;5066413;28;20495;-65
2023/05/06 09:53:33;;;;;;;6.00;2.63;;;18.90;71.80;;;;;;5066819;28;20479;-65
2023/05/06 09:56:11;;;;;;;8.80;2.90;;;18.90;71.80;;;;;;5068121;28;20460;-65
2023/05/06 09:58:57;;;;;;;7.30;3.20;;;18.90;71.80;;;;;;5065795;28;20854;-66
2023/05/06 10:01:33;;;;;;;6.43;2.77;;;18.90;71.80;;;;;;5064970;28;20883;-66
2023/05/06 10:04:17;;;;;;;6.30;2.37;;;19.00;71.80;;;;;;5067879;28;20478;-66
2023/05/06 10:06:49;;;;;;;6.00;2.60;;;19.00;72.00;;;;;;5066092;28;20494;-66
2023/05/06 10:09:26;;;;;;;8.00;2.60;;;19.10;71.90;;;;;;5068542;28;21013;-67
2023/05/06 10:12:02;;;;;;;5.00;2.10;;;19.20;71.80;;;;;;5065515;28;20472;-66
2023/05/06 10:14:37;;;;;;;5.20;2.37;;;19.20;71.80;;;;;;5065907;28;20468;-66
2023/05/06 10:17:11;;;;;;;4.83;1.80;;;19.30;71.80;;;;;;5067325;28;20479;-65
2023/05/06 10:19:46;;;;;;;10.63;2.57;;;19.30;71.60;;;;;;5067722;28;20449;-66
2023/05/06 10:22:35;;;;;;;5.80;2.10;;;19.30;71.50;;;;;;5064936;28;20530;-65
2023/05/06 10:25:18;;;;;;;5.07;2.23;;;19.40;71.10;;;;;;5068055;28;20449;-66
2023/05/06 10:27:57;;;;;;;5.53;2.00;;;19.30;71.10;;;;;;5064171;28;21240;-65
2023/05/06 10:30:37;;;;;;;4.80;1.93;;;19.30;70.90;;;;;;5064753;28;20517;-66
2023/05/06 10:33:15;;;;;;;5.43;1.57;;;19.30;70.70;;;;;;5064686;28;20863;-64
2023/05/06 10:35:52;;;;;;;5.10;1.67;;;19.30;70.50;;;;;;5058089;28;20998;-64
2023/05/06 10:38:35;;;;;;;4.50;1.70;;;19.40;70.20;;;;;;5065865;28;20948;-63
2023/05/06 10:41:09;;;;;;;5.50;1.90;;;19.40;70.10;;;;;;5066785;28;20480;-64
2023/05/06 10:43:44;;;;;;;6.07;1.70;;;19.30;70.10;;;;;;5062334;28;20961;-65
2023/05/06 10:46:20;;;;;;;4.70;1.97;;;19.40;70.00;;;;;;5064491;28;20457;-63
2023/05/06 10:49:19;;;;;;;4.63;1.60;;;19.40;69.80;;;;;;5063517;28;20481;-65
2023/05/06 10:52:19;;;;;;;5.30;2.00;;;19.40;69.60;;;;;;5064316;28;20472;-65
2023/05/06 10:55:05;;;;;;;7.90;2.53;;;19.30;69.50;;;;;;5067804;28;20460;-64
2023/05/06 10:57:44;;;;;;;5.20;2.50;;;19.30;69.50;;;;;;5064851;28;20571;-64
2023/05/06 11:00:19;;;;;;;6.03;2.07;;;19.40;69.30;;;;;;5063850;28;20476;-65
2023/05/06 11:03:01;;;;;;;3.77;1.60;;;19.30;69.40;;;;;;5062427;28;20700;-66
2023/05/06 11:05:30;;;;;;;4.60;1.70;;;19.40;69.40;;;;;;5081058;28;20457;-66
2023/05/06 11:08:15;;;;;;;5.90;1.80;;;19.40;69.20;;;;;;5065535;28;20480;-64
2023/05/06 11:10:49;;;;;;;4.80;1.90;;;19.40;69.00;;;;;;5064307;28;20462;-65
2023/05/06 11:13:32;;;;;;;4.80;1.90;;;19.40;69.00;;;;;;5063625;28;20487;-64
2023/05/06 11:16:06;;;;;;;5.77;2.00;;;19.40;69.00;;;;;;5082831;28;20457;-64
2023/05/06 11:18:46;;;;;;;4.10;1.80;;;19.40;69.10;;;;;;5065532;28;20498;-65
2023/05/06 11:21:39;;;;;;;6.13;2.27;;;19.40;69.00;;;;;;5066948;28;20468;-64
2023/05/06 11:24:24;;;;;;;4.80;1.73;;;19.40;69.00;;;;;;5069184;28;20540;-64
2023/05/06 11:27:02;;;;;;;5.63;2.10;;;19.40;69.30;;;;;;5066509;28;20465;-64
2023/05/06 11:29:33;;;;;;;5.13;2.07;;;19.50;69.40;;;;;;5070376;28;20468;-64
2023/05/06 11:32:15;;;;;;;6.00;1.90;;;19.50;69.20;;;;;;5069026;28;20503;-65
2023/05/06 11:34:54;;;;;;;4.97;1.80;;;19.60;69.10;;;;;;5069064;28;20453;-65
2023/05/06 11:37:31;;;;;;;6.40;2.10;;;19.60;68.90;;;;;;5069897;28;20461;-66
2023/05/06 11:40:16;;;;;;;4.33;1.77;;;19.60;68.80;;;;;;5070099;28;20449;-66
2023/05/06 11:42:49;;;;;;;4.80;2.00;;;19.60;68.70;;;;;;5062381;28;20552;-66
2023/05/06 11:45:28;;;;;;;8.13;2.20;;;19.60;68.60;;;;;;5066992;28;20946;-67
2023/05/06 11:48:03;;;;;;;5.50;1.83;;;19.60;68.60;;;;;;5067525;28;20457;-67
2023/05/06 11:50:37;;;;;;;4.47;1.97;;;19.60;68.60;;;;;;5063150;28;20461;-67
2023/05/06 11:53:09;;;;;;;4.40;1.70;;;19.60;68.60;;;;;;5070715;28;20498;-67
2023/05/06 11:55:44;;;;;;;4.03;1.43;;;19.60;68.40;;;;;;5066941;28;20481;-67
2023/05/06 11:58:21;;;;;;;4.70;1.97;;;19.60;68.10;;;;;;5068768;28;20491;-67
2023/05/06 12:00:54;;;;;;;3.90;1.77;;;19.60;68.00;;;;;;5068232;28;20599;-67
2023/05/06 12:03:26;;;;;;;6.40;1.43;;;19.60;67.90;;;;;;5066974;28;20496;-67
2023/05/06 12:06:00;;;;;;;7.80;1.27;;;19.60;67.80;;;;;;5063506;28;20461;-67
2023/05/06 12:08:40;;;;;;;5.23;1.60;;;19.60;67.80;;;;;;5071679;28;20547;-67
2023/05/06 12:11:17;;;;;;;6.23;1.90;;;19.70;67.70;;;;;;5071227;28;20843;-67
2023/05/06 12:13:47;;;;;;;3.60;1.40;;;19.80;67.50;;;;;;5066976;28;20570;-67
2023/05/06 12:19:21;;;;;;;3.97;1.40;;;19.90;67.00;;;;;;5071011;28;20465;-67
2023/05/06 12:21:49;;;;;;;5.93;1.20;;;20.00;66.80;;;;;;5066981;28;20501;-67
2023/05/06 12:24:32;;;;;;;4.40;1.50;;;19.90;66.60;;;;;;5082819;28;20604;-67
2023/05/06 12:27:33;;;;;;;5.93;1.53;;;20.00;66.20;;;;;;5071676;28;20461;-67
2023/05/06 12:30:03;;;;;;;4.43;1.40;;;20.00;66.00;;;;;;5065973;28;20480;-67
2023/05/06 12:32:40;;;;;;;6.00;1.33;;;20.10;66.00;;;;;;5077787;28;20497;-69
2023/05/06 12:35:29;;;;;;;5.33;2.03;;;20.10;65.80;;;;;;5067344;28;21233;-69
2023/05/06 12:38:10;;;;;;;5.50;1.87;;;20.20;65.70;;;;;;5070496;28;21209;-68
2023/05/06 12:40:43;;;;;;;4.43;1.60;;;20.20;65.90;;;;;;5067386;28;20480;-68
2023/05/06 12:43:33;;;;;;;3.77;1.10;;;20.20;65.80;;;;;;5070524;28;20860;-68
2023/05/06 12:46:06;;;;;;;4.67;1.47;;;20.30;65.70;;;;;;5069598;28;20468;-68
2023/05/06 12:48:38;;;;;;;4.97;1.70;;;20.30;65.80;;;;;;5070330;28;20495;-68
2023/05/06 12:51:21;;;;;;;5.20;1.40;;;20.40;65.50;;;;;;5072068;28;20544;-68
2023/05/06 12:54:03;;;;;;;8.67;1.40;;;20.40;65.70;;;;;;5068093;28;20497;-68
2023/05/06 12:56:35;;;;;;;4.27;1.50;;;20.50;65.70;;;;;;5068337;28;20484;-68
2023/05/06 12:59:20;;;;;;;4.20;1.50;;;20.60;65.40;;;;;;5068382;28;20477;-68
2023/05/06 13:01:53;;;;;;;4.33;1.43;;;20.60;65.60;;;;;;5066524;28;20839;-68
2023/05/06 13:04:27;;;;;;;5.30;1.43;;;20.80;65.30;;;;;;5070328;28;22208;-68
2023/05/06 13:06:59;;;;;;;6.13;1.50;;;20.80;65.20;;;;;;5069000;28;20466;-68
2023/05/06 13:09:30;;;;;;;3.90;1.10;;;20.90;64.80;;;;;;5070460;28;20797;-68
2023/05/06 13:12:11;;;;;;;3.97;1.30;;;20.90;64.30;;;;;;5067284;28;20529;-68
2023/05/06 13:14:59;;;;;;;6.40;1.33;;;20.90;64.60;;;;;;5069866;28;20487;-68
2023/05/06 13:17:33;;;;;;;5.40;1.70;;;20.90;64.20;;;;;;5071847;28;20489;-68
2023/05/06 13:20:08;;;;;;;4.50;1.27;;;20.90;64.30;;;;;;5070562;28;20457;-68
2023/05/06 13:22:48;;;;;;;4.90;1.40;;;20.90;64.50;;;;;;5069071;28;20469;-68
2023/05/06 13:25:26;;;;;;;4.40;1.20;;;21.00;64.20;;;;;;5068297;28;20457;-68
2023/05/06 13:28:00;;;;;;;4.27;1.50;;;20.90;64.10;;;;;;5066491;28;20472;-68
2023/05/06 13:30:39;;;;;;;6.30;1.50;;;21.00;64.30;;;;;;5068266;28;20488;-68
2023/05/06 13:33:20;;;;;;;3.73;0.97;;;21.00;64.20;;;;;;5063094;28;20859;-68
2023/05/06 13:35:52;;;;;;;3.63;1.20;;;21.00;64.10;;;;;;5067124;28;20453;-68
2023/05/06 13:38:32;;;;;;;3.70;0.97;;;21.10;63.90;;;;;;5068678;28;20457;-68
2023/05/06 13:41:09;;;;;;;3.80;1.10;;;21.10;63.70;;;;;;5067762;28;20449;-68
2023/05/06 13:43:48;;;;;;;4.20;1.10;;;21.10;63.20;;;;;;5067649;28;20472;-68
2023/05/06 13:46:42;;;;;;;4.00;1.20;;;21.10;62.80;;;;;;5064829;28;20474;-68
2023/05/06 13:49:17;;;;;;;4.47;1.50;;;21.10;62.60;;;;;;5069140;28;20790;-68